West Potrero (157) Station Data

Red Flag Warning: No
Fire Weather Zone: 250
SDGE Region: Mountain Empire
Lat/Lon: 32.612/-116.613

Observations

Time Wind Speed/Gust Temp(F) RH Fuel Moist Fuel Temp(F) Dewpt(F) Tmax(F) Tmin(F) Accum Precip 10-min Precip SL Press(mb)
4/26 2:40am 57 3 G 4 43° 83% - - 38° 48.2° 42.3° - - 885.0
4/26 2:30am 25 3 G 5 44° 83% - - 39° 48.2° 42.8° - - 885.0
4/26 2:20am 72 2 G 4 43° 82% - - 38° 48.2° 42.8° - - 885.0
4/26 2:10am 16 3 G 5 44° 81% - - 38° 48.2° 43.3° - - 884.0
4/26 2:00am 353 2 G 4 45° 80% - - 39° 48.2° 44.1° - - 884.0
4/26 1:50am 103 3 G 4 46° 82% - - 41° 48.2° 44.1° - - 885.0
4/26 1:40am 47 3 G 5 45° 81% - - 39° 48.2° 44.1° - - 884.0
4/26 1:30am 67 4 G 5 46° 81% - - 40° 48.2° 45° - - 885.0
4/26 1:20am 59 3 G 4 46° 81% - - 40° 48.2° 45° - - 885.0
4/26 1:10am 300 1 G 3 45° 80% - - 40° 48.2° 45° - - 884.0
4/26 1:00am 167 1 G 3 46° 80% - - 40° 48.2° 45.2° - - 884.0
4/26 12:50am 68 2 G 6 46° 81% - - 40° 48.2° 45.2° - - 885.0
4/26 12:40am 33 4 G 5 46° 80% - - 40° 48.2° 45.2° - - 884.0
4/26 12:30am 34 3 G 4 46° 79% - - 39° 48.2° 45.2° - - 884.0
4/26 12:20am 325 2 G 4 47° 77% - - 40° 48.2° 46.2° - - 883.0
4/26 12:10am 126 2 G 4 48° 77% - - 41° 48.2° 47.5° - - 883.0
4/26 12:00am 67 3 G 6 48° 77% - - 41° 63.6° 47.2° - - 883.0
4/25 11:50pm 43 6 G 7 48° 77% - - 41° 63.6° 47.2° - - 884.0
4/25 11:40pm 32 5 G 6 48° 76% - - 41° 63.6° 47.2° - - 883.0
4/25 11:30pm 15 2 G 4 49° 74% - - 41° 63.6° 48.3° - - 883.0
4/25 11:20pm 52 4 G 5 49° 74% - - 41° 63.6° 48.3° - - 883.0
4/25 11:10pm 45 3 G 4 50° 74% - - 42° 63.6° 49.2° - - 882.0
4/25 11:00pm 19 3 G 4 49° 74% - - 42° 63.6° 49.2° - - 883.0
4/25 10:50pm 40 4 G 6 50° 74% - - 42° 63.6° 49.3° - - 883.0
4/25 10:40pm 45 4 G 6 50° 74% - - 42° 63.6° 49.6° - - 883.0
4/25 10:30pm 28 3 G 4 50° 74% - - 42° 63.6° 49.7° - - 883.0
4/25 10:20pm 10 3 G 3 51° 73% - - 43° 63.6° 50.1° - - 882.0
4/25 10:10pm 46 3 G 4 51° 74% - - 43° 63.6° 50.1° - - 883.0
4/25 10:00pm 26 2 G 3 51° 74% - - 43° 63.6° 50.1° - - 883.0
4/25 9:50pm 60 2 G 3 51° 73% - - 42° 63.6° 50.1° - - 882.0
4/25 9:40pm 47 1 G 2 52° 72% - - 43° 63.6° 50.1° - - 882.0
4/25 9:30pm 10 2 G 3 52° 72% - - 43° 63.6° 50.1° - - 882.0
4/25 9:20pm 12 2 G 4 52° 71% - - 43° 63.6° 50.1° - - 882.0
4/25 9:10pm 10 3 G 4 52° 72% - - 43° 63.6° 50.1° - - 882.0
4/25 9:00pm 11 2 G 3 52° 73% - - 44° 63.6° 50.1° - - 883.0
4/25 8:50pm 2 1 G 2 53° 73% - - 44° 63.6° 50.1° - - 883.0
4/25 8:40pm 348 2 G 5 53° 74% - - 45° 63.6° 50.1° - - 883.0
4/25 8:30pm 267 4 G 5 53° 74% - - 45° 63.6° 50.1° - - 883.0
4/25 8:20pm 263 4 G 6 53° 73% - - 45° 63.6° 50.1° - - 883.0
4/25 8:10pm 258 5 G 7 54° 73% - - 45° 63.6° 50.1° - - 883.0
4/25 8:00pm 266 5 G 7 54° 72% - - 45° 63.6° 50.1° - - 883.0
4/25 7:50pm 262 5 G 7 55° 71% - - 45° 63.6° 50.1° - - 883.0
4/25 7:40pm 270 5 G 7 55° 70% - - 46° 63.6° 50.1° - - 882.0
4/25 7:30pm 274 6 G 9 55° 71% - - 46° 63.6° 50.1° - - 883.0
4/25 7:20pm 263 7 G 10 55° 71% - - 46° 63.6° 50.1° - - 883.0
4/25 7:10pm 269 7 G 10 55° 71% - - 46° 63.6° 50.1° - - 883.0
4/25 7:00pm 269 8 G 11 55° 72% - - 46° 63.6° 50.1° - - 883.0
4/25 6:50pm 268 9 G 13 55° 72% - - 47° 63.6° 50.1° - - 883.0
4/25 6:40pm 264 9 G 13 56° 72% - - 47° 63.6° 50.1° - - 883.0
4/25 6:30pm 267 9 G 12 56° 71% - - 47° 63.6° 50.1° - - 883.0
4/25 6:20pm 273 10 G 14 56° 70% - - 47° 63.6° 50.1° - - 883.0
4/25 6:10pm 270 10 G 14 57° 69% - - 47° 63.6° 50.1° - - 882.0
4/25 6:00pm 272 9 G 13 57° 68% - - 46° 63.6° 50.1° - - 882.0
4/25 5:50pm 273 9 G 14 57° 67% - - 46° 63.6° 50.1° - - 881.0
4/25 5:40pm 263 11 G 15 57° 67% - - 46° 63.6° 50.1° - - 881.0
4/25 5:30pm 260 11 G 15 57° 66% - - 46° 63.6° 50.1° - - 881.0
4/25 5:20pm 269 10 G 14 58° 65% - - 46° 63.6° 50.1° - - 881.0
4/25 5:10pm 285 10 G 14 58° 64% - - 46° 63.6° 50.1° - - 881.0
4/25 5:00pm 282 11 G 16 59° 62% - - 46° 63.6° 50.1° - - 880.0
4/25 4:50pm 284 9 G 14 59° 61% - - 46° 63.6° 50.1° - - 879.0
4/25 4:40pm 288 11 G 15 59° 60% - - 45° 63.6° 50.1° - - 879.0
4/25 4:30pm 288 12 G 19 60° 58% - - 45° 63.6° 50.1° - - 879.0
4/25 4:20pm 276 11 G 17 61° 57% - - 45° 63.6° 50.1° - - 878.0
4/25 4:10pm 281 10 G 16 61° 57% - - 46° 63.6° 50.1° - - 879.0
4/25 4:00pm 283 10 G 16 61° 57% - - 45° 63.6° 50.1° - - 878.0
4/25 3:50pm 275 10 G 16 61° 56% - - 46° 63.6° 50.1° - - 878.0
4/25 3:40pm 263 11 G 15 61° 57% - - 45° 63.6° 50.1° - - 878.0
4/25 3:30pm 255 9 G 15 61° 57% - - 45° 63.6° 50.1° - - 879.0
4/25 3:20pm 268 9 G 14 61° 57% - - 46° 63.6° 50.1° - - 878.0
4/25 3:10pm 266 8 G 12 61° 57% - - 46° 63.6° 50.1° - - 879.0
4/25 3:00pm 268 10 G 16 61° 57% - - 45° 63.6° 50.1° - - 879.0
4/25 2:50pm 274 10 G 14 61° 56% - - 46° 63.6° 50.1° - - 878.0
4/25 2:40pm 267 11 G 16 61° 57% - - 46° 63.6° 50.1° - - 879.0
4/25 2:30pm 293 9 G 15 62° 55% - - 46° 63.6° 50.1° - - 878.0
4/25 2:20pm 287 8 G 15 63° 54% - - 45° 63.6° 50.1° - - 877.0
4/25 2:10pm 286 9 G 16 62° 54% - - 45° 63.6° 50.1° - - 878.0
4/25 2:00pm 269 10 G 18 61° 55% - - 45° 62.8° 50.1° - - 878.0
4/25 1:50pm 269 12 G 19 62° 55% - - 45° 62.8° 50.1° - - 878.0
4/25 1:40pm 267 11 G 17 62° 55% - - 45° 62.8° 50.1° - - 878.0
4/25 1:30pm 277 11 G 17 61° 54% - - 45° 62.8° 50.1° - - 877.0
4/25 1:20pm 264 11 G 18 62° 51% - - 44° 62.8° 50.1° - - 876.0
4/25 1:10pm 264 10 G 14 62° 49% - - 43° 62.8° 50.1° - - 875.0
4/25 1:00pm 260 11 G 17 62° 50% - - 43° 62.4° 50.1° - - 876.0
4/25 12:50pm 260 11 G 19 61° 50% - - 43° 62.3° 50.1° - - 876.0
4/25 12:40pm 255 13 G 19 61° 50% - - 43° 61.9° 50.1° - - 876.0
4/25 12:30pm 274 11 G 17 61° 51% - - 43° 61.9° 50.1° - - 876.0
4/25 12:20pm 267 11 G 20 61° 51% - - 43° 61.7° 50.1° - - 876.0
4/25 12:10pm 262 10 G 17 61° 52% - - 43° 61.6° 50.1° - - 876.0
4/25 12:00pm 258 11 G 17 60° 53% - - 43° 61° 50.1° - - 876.0
4/25 11:50am 253 11 G 19 60° 53% - - 43° 61° 50.1° - - 876.0
4/25 11:40am 262 10 G 15 59° 55% - - 43° 60.2° 50.1° - - 877.0
4/25 11:30am 254 10 G 20 60° 53% - - 43° 60.2° 50.1° - - 876.0
4/25 11:20am 271 9 G 18 59° 54% - - 43° 59.6° 50.1° - - 877.0
4/25 11:10am 273 9 G 16 59° 55% - - 43° 59.6° 50.1° - - 877.0
4/25 11:00am 260 9 G 15 58° 57% - - 43° 58.5° 50.1° - - 877.0
4/25 10:50am 252 11 G 19 58° 58% - - 43° 58.4° 50.1° - - 878.0
4/25 10:40am 251 10 G 15 57° 61% - - 44° 58.1° 50.1° - - 879.0
4/25 10:30am 262 12 G 19 56° 64% - - 45° 58.1° 50.1° - - 880.0
4/25 10:20am 261 11 G 16 57° 64% - - 45° 58.1° 50.1° - - 880.0
4/25 10:10am 273 11 G 19 57° 63% - - 44° 57.4° 50.1° - - 880.0
4/25 10:00am 268 11 G 16 56° 65% - - 45° 57.1° 50.1° - - 881.0
4/25 9:50am 260 12 G 17 56° 66% - - 45° 57.1° 50.1° - - 881.0
4/25 9:40am 260 11 G 16 56° 66% - - 45° 56.4° 50.1° - - 881.0
4/25 9:30am 271 10 G 15 56° 65% - - 44° 56.4° 50.1° - - 880.0
4/25 9:20am 261 9 G 13 55° 68% - - 45° 55.7° 50.1° - - 881.0
4/25 9:10am 260 8 G 13 55° 69% - - 45° 55.4° 50.1° - - 882.0
4/25 9:00am 266 8 G 12 54° 71% - - 45° 54.9° 50.1° - - 882.0
4/25 8:50am 258 8 G 11 54° 72% - - 46° 54.9° 50.1° - - 883.0
4/25 8:40am 261 5 G 9 54° 74% - - 46° 54.9° 50.1° - - 884.0
4/25 8:30am 244 7 G 10 53° 76% - - 46° 54.1° 50.1° - - 884.0
4/25 8:20am 247 5 G 8 53° 79% - - 46° 53.3° 50.1° - - 885.0
4/25 8:10am 251 7 G 9 52° 81% - - 47° 52.6° 50.1° - - 886.0
4/25 8:00am 254 6 G 8 52° 82% - - 46° 52° 50.1° - - 886.0
4/25 7:50am 231 7 G 10 52° 83% - - 47° 52° 50.1° - - 887.0
4/25 7:40am 228 6 G 8 52° 84% - - 47° 52° 50.1° - - 887.0
4/25 7:30am 239 7 G 10 51° 84% - - 47° 51.6° 50.1° - - 887.0
4/25 7:20am 238 7 G 9 51° 85% - - 47° 51.6° 50.1° - - 887.0
4/25 7:10am 232 6 G 10 51° 86% - - 47° 51.4° 50.1° - - 888.0
4/25 7:00am 230 6 G 9 51° 87% - - 47° 51.3° 50.1° - - 888.0
4/25 6:50am 239 6 G 9 51° 87% - - 47° 51.3° 50.1° - - 889.0
4/25 6:40am 243 5 G 7 51° 89% - - 48° 51.3° 50.1° - - 889.0
4/25 6:30am 245 5 G 8 51° 90% - - 48° 51.3° 50.1° - - 890.0
4/25 6:20am 251 5 G 7 51° 89% - - 48° 51.3° 50.1° - - 889.0
4/25 6:10am 240 5 G 8 51° 89% - - 48° 51.3° 50.1° - - 889.0
4/25 6:00am 236 6 G 8 51° 90% - - 48° 51.3° 50.1° - - 890.0
4/25 5:50am 236 6 G 8 51° 90% - - 48° 51.3° 50.1° - - 890.0
4/25 5:40am 227 5 G 7 51° 91% - - 48° 51.3° 50.1° - - 890.0
4/25 5:30am 218 5 G 8 51° 91% - - 48° 51.3° 50.1° - - 890.0
4/25 5:20am 219 6 G 8 51° 91% - - 48° 51.3° 50.1° - - 890.0
4/25 5:10am 230 5 G 8 51° 91% - - 48° 51.3° 50.1° - - 890.0
4/25 5:00am 214 5 G 8 51° 91% - - 48° 51.3° 50.1° - - 890.0
4/25 4:50am 220 6 G 9 50° 91% - - 48° 51.3° 50.1° - - 890.0
4/25 4:40am 219 6 G 9 50° 91% - - 48° 51.3° 50.1° - - 890.0
4/25 4:30am 223 5 G 8 50° 91% - - 48° 51.3° 50.1° - - 890.0
4/25 4:20am 223 5 G 8 50° 91% - - 48° 51.3° 50.1° - - 890.0
4/25 4:10am 220 5 G 8 51° 90% - - 48° 51.3° 50.1° - - 890.0
4/25 4:00am 201 4 G 6 51° 91% - - 48° 51.3° 50.1° - - 890.0
4/25 3:50am 191 4 G 7 50° 91% - - 48° 51.3° 50.1° - - 890.0
4/25 3:40am 190 4 G 8 50° 91% - - 48° 51.3° 50.1° - - 890.0
4/25 3:30am 198 5 G 9 50° 91% - - 48° 51.3° 50.1° - - 890.0
4/25 3:20am 227 5 G 9 50° 91% - - 48° 51.3° 50.1° - - 890.0
4/25 3:10am 238 6 G 10 50° 91% - - 48° 51.3° 50.1° - - 890.0
4/25 3:00am 228 5 G 7 50° 90% - - 48° 51.3° 50.1° - - 889.0
4/25 2:50am 240 7 G 9 50° 89% - - 47° 51.3° 50.1° - - 889.0
4/25 2:40am 233 7 G 10 50° 88% - - 47° 51.3° 50.2° - - 888.0
4/25 2:30am 227 7 G 11 50° 86% - - 46° 51.3° 50.2° - - 888.0
4/25 2:20am 217 8 G 12 50° 85% - - 46° 51.3° 50.2° - - 887.0
4/25 2:10am 211 7 G 11 50° 85% - - 46° 51.3° 50.2° - - 888.0
4/25 2:00am 215 8 G 11 51° 85% - - 46° 51.3° 50.2° - - 888.0
4/25 1:50am 210 7 G 11 51° 86% - - 46° 51.3° 50.2° - - 888.0
4/25 1:40am 221 7 G 11 50° 87% - - 47° 51.3° 50.2° - - 888.0
4/25 1:30am 212 5 G 8 51° 88% - - 47° 51.3° 50.2° - - 889.0
4/25 1:20am 217 5 G 8 50° 86% - - 46° 51.3° 50.2° - - 888.0
4/25 1:10am 215 7 G 11 51° 84% - - 46° 51.3° 50.4° - - 887.0
4/25 1:00am 196 6 G 12 51° 83% - - 46° 51.3° 50.5° - - 887.0
4/25 12:50am 191 5 G 8 51° 82% - - 46° 51.3° 50.7° - - 886.0
4/25 12:40am 214 6 G 10 51° 82% - - 46° 51.3° 50.7° - - 886.0
4/25 12:30am 193 7 G 11 51° 82% - - 46° 51.3° 50.7° - - 886.0
4/25 12:20am 193 6 G 10 51° 83% - - 46° 51.3° 50.7° - - 887.0
4/25 12:10am 210 8 G 12 51° 82% - - 46° 51.3° 50.7° - - 886.0
4/25 12:00am 233 5 G 9 51° 81% - - 45° 66.4° 39.5° - - 886.0
4/24 11:50pm 247 6 G 10 51° 81% - - 45° 66.4° 39.5° - - 886.0
4/24 11:40pm 264 8 G 12 51° 82% - - 45° 66.4° 39.5° - - 886.0
4/24 11:30pm 233 8 G 12 51° 83% - - 45° 66.4° 39.5° - - 887.0
4/24 11:20pm 245 8 G 12 51° 83% - - 45° 66.4° 39.5° - - 887.0
4/24 11:10pm 247 8 G 11 51° 83% - - 46° 66.4° 39.5° - - 887.0
4/24 11:00pm 227 7 G 10 51° 82% - - 46° 66.4° 39.5° - - 886.0
4/24 10:50pm 229 7 G 10 51° 82% - - 46° 66.4° 39.5° - - 886.0
4/24 10:40pm 211 6 G 8 51° 82% - - 46° 66.4° 39.5° - - 886.0
4/24 10:30pm 219 6 G 9 51° 84% - - 46° 66.4° 39.5° - - 887.0
4/24 10:20pm 232 5 G 7 51° 84% - - 47° 66.4° 39.5° - - 887.0
4/24 10:10pm 204 5 G 6 51° 84% - - 47° 66.4° 39.5° - - 887.0
4/24 10:00pm 207 5 G 7 52° 83% - - 47° 66.4° 39.5° - - 887.0
4/24 9:50pm 209 4 G 6 52° 82% - - 47° 66.4° 39.5° - - 887.0
4/24 9:40pm 223 3 G 5 52° 82% - - 47° 66.4° 39.5° - - 886.0
4/24 9:30pm 241 4 G 7 52° 82% - - 47° 66.4° 39.5° - - 887.0
4/24 9:20pm 261 5 G 8 52° 83% - - 47° 66.4° 39.5° - - 887.0
4/24 9:10pm 243 5 G 8 52° 84% - - 48° 66.4° 39.5° - - 887.0
4/24 9:00pm 264 6 G 9 53° 83% - - 48° 66.4° 39.5° - - 887.0
4/24 8:50pm 281 7 G 11 53° 83% - - 48° 66.4° 39.5° - - 887.0
4/24 8:40pm 288 5 G 8 53° 83% - - 48° 66.4° 39.5° - - 887.0
4/24 8:30pm 296 2 G 7 53° 83% - - 48° 66.4° 39.5° - - 887.0
4/24 8:20pm 271 3 G 6 53° 82% - - 48° 66.4° 39.5° - - 887.0
4/24 8:10pm 277 6 G 10 54° 81% - - 48° 66.4° 39.5° - - 887.0
4/24 8:00pm 270 6 G 9 54° 80% - - 48° 66.4° 39.5° - - 886.0
4/24 7:50pm 264 5 G 7 54° 79% - - 48° 66.4° 39.5° - - 886.0
4/24 7:40pm 277 4 G 7 55° 77% - - 48° 66.4° 39.5° - - 885.0
4/24 7:30pm 261 6 G 8 55° 76% - - 48° 66.4° 39.5° - - 885.0
4/24 7:20pm 268 6 G 9 56° 74% - - 48° 66.4° 39.5° - - 884.0
4/24 7:10pm 256 8 G 10 56° 73% - - 48° 66.4° 39.5° - - 884.0
4/24 7:00pm 255 7 G 9 57° 71% - - 48° 66.4° 39.5° - - 883.0
4/24 6:50pm 261 7 G 10 58° 70% - - 48° 66.4° 39.5° - - 883.0
4/24 6:40pm 253 8 G 12 58° 68% - - 47° 66.4° 39.5° - - 882.0
4/24 6:30pm 264 9 G 14 58° 67% - - 47° 66.4° 39.5° - - 882.0
4/24 6:20pm 267 10 G 14 59° 65% - - 47° 66.4° 39.5° - - 881.0
4/24 6:10pm 251 9 G 14 60° 63% - - 47° 66.4° 39.5° - - 881.0
4/24 6:00pm 262 10 G 14 60° 60% - - 47° 66.4° 39.5° - - 880.0